createdAt,value
2023-11-04T00:01:50.154Z,2.47
2023-11-04T00:04:20.699Z,3.13
2023-11-04T00:06:51.520Z,3.13
2023-11-04T00:09:37.814Z,3.08
2023-11-04T00:12:18.839Z,3.05
2023-11-04T00:14:54.712Z,2.65
2023-11-04T00:17:25.944Z,2.45
2023-11-04T00:19:57.875Z,2.40
2023-11-04T00:22:28.348Z,2.35
2023-11-04T00:25:02.187Z,2.75
2023-11-04T00:27:33.700Z,1.83
2023-11-04T00:30:07.458Z,2.22
2023-11-04T00:32:43.208Z,1.33
2023-11-04T00:35:13.580Z,1.67
2023-11-04T00:37:44.994Z,1.40
2023-11-04T00:40:17.270Z,1.92
2023-11-04T00:42:48.393Z,1.70
2023-11-04T00:45:21.735Z,1.25
2023-11-04T00:48:05.576Z,1.85
2023-11-04T00:50:38.318Z,1.83
2023-11-04T00:53:13.664Z,1.95
2023-11-04T00:55:44.871Z,1.17
2023-11-04T00:58:15.759Z,1.05
2023-11-04T01:00:49.344Z,1.20
2023-11-04T01:03:20.560Z,1.05
2023-11-04T01:05:51.663Z,1.92
2023-11-04T01:08:23.392Z,1.40
2023-11-04T01:10:55.179Z,1.25
2023-11-04T01:13:26.316Z,2.10
2023-11-04T01:15:59.670Z,1.83
2023-11-04T01:18:30.169Z,1.45
2023-11-04T01:21:00.473Z,1.30
2023-11-04T01:23:34.044Z,1.65
2023-11-04T01:26:04.850Z,1.27
2023-11-04T01:28:39.580Z,1.27
2023-11-04T01:31:15.752Z,1.65
2023-11-04T01:33:47.548Z,1.95
2023-11-04T01:36:18.551Z,1.55
2023-11-04T01:38:49.619Z,1.58
2023-11-04T01:41:20.689Z,1.38
2023-11-04T01:43:59.742Z,1.98
2023-11-04T01:46:35.416Z,1.38
2023-11-04T01:49:09.401Z,1.80
2023-11-04T01:51:49.386Z,2.10
2023-11-04T01:54:36.523Z,2.00
2023-11-04T01:57:09.037Z,1.83
2023-11-04T01:59:46.227Z,2.15
2023-11-04T02:02:22.378Z,2.03
2023-11-04T02:04:54.252Z,1.85
2023-11-04T02:07:27.036Z,1.42
2023-11-04T02:09:58.959Z,1.65
2023-11-04T02:12:29.568Z,1.30
2023-11-04T02:15:03.024Z,1.50
2023-11-04T02:17:36.066Z,1.77
2023-11-04T02:20:09.362Z,1.30
2023-11-04T02:22:42.334Z,1.92
2023-11-04T02:25:16.257Z,1.60
2023-11-04T02:27:50.419Z,1.60
2023-11-04T02:30:21.231Z,1.15
2023-11-04T02:32:52.804Z,1.63
2023-11-04T02:35:30.750Z,1.60
2023-11-04T02:38:04.250Z,1.73
2023-11-04T02:40:34.812Z,1.50
2023-11-04T02:43:06.634Z,1.48
2023-11-04T02:45:39.588Z,1.27
2023-11-04T02:48:13.287Z,1.48
2023-11-04T02:50:54.804Z,1.33
2023-11-04T02:53:28.383Z,1.42
2023-11-04T02:55:58.651Z,1.40
2023-11-04T02:58:29.047Z,2.20
2023-11-04T03:01:02.556Z,1.63
2023-11-04T03:03:36.258Z,1.75
2023-11-04T03:06:14.852Z,1.58
2023-11-04T03:08:51.551Z,1.23
2023-11-04T03:11:25.679Z,1.90
2023-11-04T03:13:56.122Z,1.33
2023-11-04T03:16:28.507Z,1.70
2023-11-04T03:18:59.765Z,1.63
2023-11-04T03:21:30.580Z,1.42
2023-11-04T03:24:03.455Z,1.55
2023-11-04T03:26:35.937Z,1.25
2023-11-04T03:29:09.466Z,2.13
2023-11-04T03:31:44.024Z,1.63
2023-11-04T03:34:14.831Z,1.83
2023-11-04T03:36:45.398Z,1.58
2023-11-04T03:39:20.523Z,2.33
2023-11-04T03:41:53.306Z,1.52
2023-11-04T03:44:24.062Z,1.73
2023-11-04T03:47:03.815Z,1.27
2023-11-04T03:49:36.907Z,1.83
2023-11-04T03:52:08.917Z,1.27
2023-11-04T03:54:42.384Z,1.58
2023-11-04T03:57:13.946Z,1.75
2023-11-04T03:59:44.702Z,1.27
2023-11-04T04:02:18.194Z,2.05
2023-11-04T04:04:48.959Z,1.80
2023-11-04T04:07:19.309Z,1.05
2023-11-04T04:09:53.027Z,0.93
2023-11-04T04:12:24.757Z,1.20
2023-11-04T04:14:55.492Z,1.17
2023-11-04T04:17:26.469Z,1.25
2023-11-04T04:20:01.317Z,1.23
2023-11-04T04:22:36.877Z,1.48
2023-11-04T04:25:11.436Z,1.38
2023-11-04T04:27:45.694Z,1.88
2023-11-04T04:30:17.367Z,1.63
2023-11-04T04:32:50.596Z,1.73
2023-11-04T04:35:20.972Z,1.70
2023-11-04T04:37:54.463Z,1.30
2023-11-04T04:40:29.899Z,1.05
2023-11-04T04:43:00.731Z,2.03
2023-11-04T04:45:37.076Z,5.28
2023-11-04T04:48:08.398Z,2.58
2023-11-04T04:50:39.694Z,2.20
2023-11-04T04:53:11.970Z,1.85
2023-11-04T04:55:45.513Z,2.05
2023-11-04T04:58:15.850Z,1.52
2023-11-04T05:00:49.114Z,1.50
2023-11-04T05:03:20.290Z,1.92
2023-11-04T05:05:52.792Z,2.08
2023-11-04T05:08:24.640Z,2.05
2023-11-04T05:11:00.332Z,1.63
2023-11-04T05:13:31.428Z,2.50
2023-11-04T05:16:04.214Z,1.90
2023-11-04T05:18:35.402Z,2.40
2023-11-04T05:21:09.703Z,2.42
2023-11-04T05:23:40.308Z,2.30
2023-11-04T05:26:14.428Z,1.88
2023-11-04T05:28:49.725Z,2.65
2023-11-04T05:31:26.500Z,2.83
2023-11-04T05:33:59.527Z,2.28
2023-11-04T05:36:30.431Z,2.20
2023-11-04T05:39:01.887Z,1.90
2023-11-04T05:41:35.571Z,1.75
2023-11-04T05:44:11.747Z,1.95
2023-11-04T05:46:42.527Z,1.83
2023-11-04T05:49:13.356Z,2.15
2023-11-04T05:51:44.738Z,2.25
2023-11-04T05:54:22.285Z,2.40
2023-11-04T05:56:58.618Z,2.35
2023-11-04T05:59:29.113Z,2.28
2023-11-04T06:02:05.019Z,2.15
2023-11-04T06:04:36.939Z,2.22
2023-11-04T06:07:08.372Z,1.60
2023-11-04T06:09:41.626Z,1.67
2023-11-04T06:12:16.111Z,1.48
2023-11-04T06:14:51.453Z,1.65
2023-11-04T06:17:22.236Z,2.22
2023-11-04T06:19:52.542Z,2.50
2023-11-04T06:22:23.604Z,2.90
2023-11-04T06:24:54.838Z,2.53
2023-11-04T06:27:28.373Z,2.03
2023-11-04T06:30:01.236Z,1.52
2023-11-04T06:32:35.342Z,1.98
2023-11-04T06:35:06.828Z,1.63
2023-11-04T06:37:37.306Z,2.33
2023-11-04T06:40:11.225Z,1.65
2023-11-04T06:42:47.991Z,1.70
2023-11-04T06:45:20.078Z,1.70
2023-11-04T06:47:53.436Z,1.73
2023-11-04T06:50:24.088Z,1.92
2023-11-04T06:52:54.932Z,1.65
2023-11-04T06:55:29.707Z,1.73
2023-11-04T06:58:04.130Z,1.90
2023-11-04T07:00:35.006Z,1.40
2023-11-04T07:03:10.544Z,2.03
2023-11-04T07:05:42.269Z,1.55
2023-11-04T07:08:12.548Z,1.70
2023-11-04T07:10:43.807Z,2.35
2023-11-04T07:13:17.645Z,2.28
2023-11-04T07:15:49.935Z,2.08
2023-11-04T07:18:21.080Z,1.83
2023-11-04T07:20:54.100Z,2.15
2023-11-04T07:23:24.889Z,2.00
2023-11-04T07:25:55.833Z,1.77
2023-11-04T07:28:37.823Z,2.45
2023-11-04T07:31:09.504Z,2.38
2023-11-04T07:33:42.903Z,1.60
2023-11-04T07:36:13.925Z,1.08
2023-11-04T07:38:44.866Z,0.65
2023-11-04T07:41:15.447Z,1.23
2023-11-04T07:43:49.700Z,0.88
2023-11-04T07:46:27.704Z,0.80
2023-11-04T07:48:58.001Z,0.80
2023-11-04T07:51:28.329Z,0.57
2023-11-04T07:53:59.673Z,0.90
2023-11-04T07:56:30.464Z,1.02
2023-11-04T07:59:03.877Z,0.68
2023-11-04T08:01:35.014Z,0.55
2023-11-04T08:04:05.592Z,1.48
2023-11-04T08:09:12.225Z,1.10
2023-11-04T08:11:43.007Z,0.95
2023-11-04T08:14:16.036Z,0.98
2023-11-04T08:16:49.012Z,0.57
2023-11-04T08:19:19.799Z,0.95
2023-11-04T08:21:56.478Z,1.25
2023-11-04T08:24:27.413Z,0.82
2023-11-04T08:26:59.570Z,0.88
2023-11-04T08:29:34.356Z,0.82
2023-11-04T08:32:06.069Z,0.75
2023-11-04T08:34:38.362Z,0.88
2023-11-04T08:37:11.629Z,1.27
2023-11-04T08:39:49.857Z,0.50
2023-11-04T08:42:20.651Z,0.75
2023-11-04T08:47:24.727Z,0.57
2023-11-04T08:49:58.475Z,0.35
2023-11-04T08:52:28.745Z,0.57
2023-11-04T08:55:05.541Z,0.70
2023-11-04T08:57:40.097Z,0.30
2023-11-04T09:00:17.236Z,0.50
2023-11-04T09:02:50.542Z,0.68
2023-11-04T09:05:28.617Z,0.65
2023-11-04T09:08:04.361Z,0.50
2023-11-04T09:13:10.186Z,0.40
2023-11-04T09:15:44.088Z,0.28
2023-11-04T09:18:19.236Z,0.40
2023-11-04T09:20:50.229Z,0.45
2023-11-04T09:23:21.029Z,0.55
2023-11-04T09:25:54.166Z,0.40
2023-11-04T09:28:28.251Z,0.60
2023-11-04T09:31:03.902Z,0.22
2023-11-04T09:33:35.830Z,0.32
2023-11-04T09:36:10.317Z,0.47
2023-11-04T09:38:43.781Z,0.45
2023-11-04T09:41:14.329Z,0.60
2023-11-04T09:43:45.258Z,0.52
2023-11-04T09:46:19.067Z,0.50
2023-11-04T09:48:53.147Z,0.55
2023-11-04T09:51:25.920Z,0.38
2023-11-04T09:54:05.378Z,0.50
2023-11-04T09:56:36.220Z,0.32
2023-11-04T09:59:09.598Z,0.63
2023-11-04T10:01:44.453Z,0.57
2023-11-04T10:04:15.578Z,0.43
2023-11-04T10:06:47.439Z,0.82
2023-11-04T10:09:21.247Z,0.45
2023-11-04T10:11:52.322Z,0.57
2023-11-04T10:14:23.913Z,0.63
2023-11-04T10:16:57.500Z,0.75
2023-11-04T10:19:29.027Z,0.73
2023-11-04T10:22:03.152Z,0.45
2023-11-04T10:24:33.759Z,0.63
2023-11-04T10:27:05.076Z,0.35
2023-11-04T10:29:37.600Z,0.40
2023-11-04T10:32:16.018Z,0.68
2023-11-04T10:34:52.023Z,0.63
2023-11-04T10:37:23.279Z,0.40
2023-11-04T10:39:59.020Z,0.70
2023-11-04T10:42:33.294Z,0.65
2023-11-04T10:45:12.001Z,0.40
2023-11-04T10:47:57.908Z,0.52
2023-11-04T10:50:35.537Z,0.50
2023-11-04T10:53:13.170Z,0.90
2023-11-04T10:56:02.182Z,0.22
2023-11-04T10:58:43.208Z,0.50
2023-11-04T11:01:15.672Z,0.20
2023-11-04T11:03:51.155Z,0.40
2023-11-04T11:06:22.116Z,0.55
2023-11-04T11:08:53.381Z,0.57
2023-11-04T11:11:34.437Z,0.47
2023-11-04T11:14:06.467Z,0.45
2023-11-04T11:16:37.626Z,0.43
2023-11-04T11:19:18.403Z,0.63
2023-11-04T11:21:54.853Z,0.68
2023-11-04T11:24:26.815Z,0.68
2023-11-04T11:27:09.305Z,0.60
2023-11-04T11:29:58.075Z,0.63
2023-11-04T11:32:38.294Z,0.50
2023-11-04T11:35:14.755Z,0.47
2023-11-04T11:37:51.786Z,0.50
2023-11-04T11:40:47.657Z,0.30
2023-11-04T11:43:25.354Z,0.65
2023-11-04T11:45:57.400Z,0.50
2023-11-04T11:48:31.011Z,0.50
2023-11-04T11:51:12.931Z,0.52
2023-11-04T11:53:48.173Z,0.93
2023-11-04T11:56:19.600Z,0.52
2023-11-04T11:58:52.526Z,0.70
2023-11-04T12:01:25.701Z,0.40
2023-11-04T12:03:57.095Z,0.47
2023-11-04T12:06:30.836Z,0.52
2023-11-04T12:09:04.884Z,0.70
2023-11-04T12:11:41.494Z,0.60
2023-11-04T12:14:22.788Z,0.20
2023-11-04T12:16:54.502Z,0.30
2023-11-04T12:19:29.101Z,0.38
2023-11-04T12:22:03.891Z,0.22
2023-11-04T12:24:39.298Z,0.32
2023-11-04T12:27:15.464Z,0.60
2023-11-04T12:32:23.996Z,0.35
2023-11-04T12:34:57.367Z,0.57
2023-11-04T12:37:34.413Z,0.40
2023-11-04T12:42:46.603Z,0.25
2023-11-04T12:45:22.744Z,0.38
2023-11-04T12:47:53.036Z,0.20
2023-11-04T12:53:05.027Z,0.40
2023-11-04T12:55:37.456Z,0.22
2023-11-04T12:58:11.211Z,0.55
2023-11-04T13:00:42.344Z,0.30
2023-11-04T13:03:14.085Z,0.40
2023-11-04T13:05:45.194Z,0.20
2023-11-04T13:08:19.831Z,0.30
2023-11-04T13:10:50.208Z,0.30
2023-11-04T13:16:01.392Z,0.17
2023-11-04T13:18:31.739Z,0.40
2023-11-04T13:23:39.556Z,0.20
2023-11-04T13:26:09.928Z,0.22
2023-11-04T13:31:10.759Z,0.30
2023-11-04T13:33:49.171Z,0.22
2023-11-04T13:36:22.743Z,0.30
2023-11-04T13:39:03.615Z,0.45
2023-11-04T13:41:43.832Z,0.40
2023-11-04T13:44:20.213Z,0.60
2023-11-04T13:46:58.117Z,0.43
2023-11-04T13:49:29.247Z,0.15
2023-11-04T13:52:00.260Z,0.50
2023-11-04T13:54:35.122Z,0.52
2023-11-04T13:57:09.421Z,0.43
2023-11-04T13:59:48.536Z,0.40
2023-11-04T14:02:19.491Z,0.32
2023-11-04T14:04:50.467Z,0.38
2023-11-04T14:07:21.326Z,0.30
2023-11-04T14:09:54.857Z,0.22
2023-11-04T14:12:28.325Z,0.52
2023-11-04T14:14:58.599Z,0.70
2023-11-04T14:17:29.907Z,0.40
2023-11-04T14:20:01.718Z,0.52
2023-11-04T14:22:34.594Z,0.55
2023-11-04T14:25:08.571Z,0.40
2023-11-04T14:27:38.960Z,0.40
2023-11-04T14:30:12.599Z,0.77
2023-11-04T14:32:45.951Z,0.70
2023-11-04T14:35:16.812Z,0.60
2023-11-04T14:37:49.610Z,0.50
2023-11-04T14:40:26.143Z,0.25
2023-11-04T14:43:01.636Z,0.45
2023-11-04T14:45:39.125Z,0.35
2023-11-04T14:48:11.486Z,0.80
2023-11-04T14:50:46.524Z,0.70
2023-11-04T14:53:27.487Z,0.95
2023-11-04T14:56:00.424Z,0.85
2023-11-04T14:58:31.550Z,0.65
2023-11-04T15:01:02.280Z,0.77
2023-11-04T15:03:33.187Z,0.98
2023-11-04T15:06:08.301Z,0.73
2023-11-04T15:08:38.783Z,0.80
2023-11-04T15:11:12.713Z,0.45
2023-11-04T15:13:44.078Z,0.63
2023-11-04T15:16:14.946Z,1.30
2023-11-04T15:18:48.036Z,0.70
2023-11-04T15:21:18.892Z,0.75
2023-11-04T15:23:52.349Z,0.65
2023-11-04T15:26:26.058Z,0.47
2023-11-04T15:28:57.032Z,1.05
2023-11-04T15:31:27.904Z,0.73
2023-11-04T15:33:58.622Z,1.27
2023-11-04T15:39:01.712Z,0.93
2023-11-04T15:41:37.040Z,1.00
2023-11-04T15:44:10.864Z,1.27
2023-11-04T15:46:47.684Z,1.25
2023-11-04T15:49:19.018Z,1.17
2023-11-04T15:51:50.503Z,0.88
2023-11-04T15:54:21.427Z,1.17
2023-11-04T15:56:55.272Z,1.15
2023-11-04T15:59:25.594Z,1.33
2023-11-04T16:02:01.846Z,0.73
2023-11-04T16:04:32.493Z,1.13
2023-11-04T16:07:10.379Z,0.82
2023-11-04T16:09:42.058Z,1.02
2023-11-04T16:12:18.342Z,0.82
2023-11-04T16:14:48.683Z,0.95
2023-11-04T16:17:19.154Z,0.90
2023-11-04T16:19:49.459Z,1.10
2023-11-04T16:24:54.215Z,1.00
2023-11-04T16:27:28.155Z,1.00
2023-11-04T16:29:58.857Z,0.52
2023-11-04T16:32:30.229Z,1.23
2023-11-04T16:35:01.157Z,1.35
2023-11-04T16:37:31.845Z,1.42
2023-11-04T16:40:07.205Z,1.38
2023-11-04T16:42:42.851Z,1.20
2023-11-04T16:45:16.724Z,1.85
2023-11-04T16:47:50.292Z,1.85
2023-11-04T16:50:24.115Z,1.35
2023-11-04T16:52:55.047Z,1.75
2023-11-04T16:55:26.005Z,1.85
2023-11-04T16:58:01.654Z,2.28
2023-11-04T17:00:32.405Z,1.73
2023-11-04T17:03:03.587Z,3.55
2023-11-04T17:05:34.037Z,3.80
2023-11-04T17:08:06.726Z,3.80
2023-11-04T17:10:37.770Z,3.95
2023-11-04T17:15:44.515Z,3.22
2023-11-04T17:18:16.880Z,3.38
2023-11-04T17:20:47.686Z,3.20
2023-11-04T17:23:18.570Z,3.03
2023-11-04T17:25:48.931Z,2.50
2023-11-04T17:28:22.916Z,3.67
2023-11-04T17:30:54.618Z,2.75
2023-11-04T17:33:25.481Z,2.67
2023-11-04T17:35:56.267Z,2.83
2023-11-04T17:38:27.640Z,2.42
2023-11-04T17:40:58.097Z,3.42
2023-11-04T17:43:34.458Z,2.97
2023-11-04T17:46:07.062Z,4.60
2023-11-04T17:48:37.839Z,5.88
2023-11-04T17:51:09.034Z,5.72
2023-11-04T17:53:41.505Z,5.47
2023-11-04T17:56:12.580Z,6.85
2023-11-04T17:58:47.003Z,6.22
2023-11-04T18:01:29.589Z,7.30
2023-11-04T18:04:02.683Z,7.75
2023-11-04T18:06:33.349Z,11.50
2023-11-04T18:09:09.593Z,9.20
2023-11-04T18:11:43.233Z,9.27
2023-11-04T18:14:20.890Z,9.20
2023-11-04T18:16:52.008Z,9.45
2023-11-04T18:19:24.014Z,8.13
2023-11-04T18:21:57.648Z,8.57
2023-11-04T18:24:28.591Z,7.72
2023-11-04T18:26:58.913Z,8.68
2023-11-04T18:29:31.884Z,7.95
2023-11-04T18:32:02.819Z,7.65
2023-11-04T18:34:33.359Z,8.02
2023-11-04T18:37:08.666Z,7.30
2023-11-04T18:39:41.833Z,8.35
2023-11-04T18:42:14.983Z,7.13
2023-11-04T18:44:48.969Z,7.47
2023-11-04T18:47:23.806Z,9.10
2023-11-04T18:49:57.465Z,13.10
2023-11-04T18:52:33.273Z,12.57
2023-11-04T18:55:06.551Z,10.77
2023-11-04T18:57:40.147Z,10.73
2023-11-04T19:00:19.655Z,17.63
2023-11-04T19:02:54.063Z,18.65
2023-11-04T19:05:29.387Z,14.40
2023-11-04T19:08:03.498Z,13.32
2023-11-04T19:10:39.642Z,13.48
2023-11-04T19:13:12.278Z,13.52
2023-11-04T19:15:52.281Z,15.07
2023-11-04T19:18:23.534Z,15.13
2023-11-04T19:20:55.474Z,13.35
2023-11-04T19:23:26.162Z,10.25
2023-11-04T19:26:01.882Z,11.45
2023-11-04T19:28:33.572Z,8.82
2023-11-04T19:31:13.872Z,9.73
2023-11-04T19:33:47.697Z,9.77
2023-11-04T19:36:27.890Z,8.88
2023-11-04T19:38:58.808Z,9.52
2023-11-04T19:41:29.678Z,8.07
2023-11-04T19:44:00.205Z,8.82
2023-11-04T19:46:35.791Z,11.35
2023-11-04T19:49:14.468Z,8.98
2023-11-04T19:51:52.641Z,10.73
2023-11-04T19:54:30.206Z,9.18
2023-11-04T19:57:06.478Z,10.88
2023-11-04T19:59:37.796Z,10.27
2023-11-04T20:02:16.206Z,11.85
2023-11-04T20:04:46.677Z,13.63
2023-11-04T20:07:19.995Z,13.48
2023-11-04T20:09:50.725Z,13.30
2023-11-04T20:12:26.734Z,11.38
2023-11-04T20:15:05.930Z,10.70
2023-11-04T20:17:39.342Z,10.80
2023-11-04T20:20:11.441Z,10.82
2023-11-04T20:22:45.207Z,10.80
2023-11-04T20:25:17.373Z,9.50
2023-11-04T20:27:47.811Z,10.00
2023-11-04T20:30:18.714Z,9.93
2023-11-04T20:32:52.379Z,10.32
2023-11-04T20:35:32.668Z,10.10
2023-11-04T20:38:08.459Z,7.63
2023-11-04T20:40:40.340Z,6.47
2023-11-04T20:43:11.071Z,6.30
2023-11-04T20:45:41.898Z,5.55
2023-11-04T20:48:15.933Z,5.85
2023-11-04T20:50:46.285Z,5.22
2023-11-04T20:53:20.956Z,5.85
2023-11-04T20:55:52.509Z,5.15
2023-11-04T20:58:26.447Z,4.88
2023-11-04T21:00:57.687Z,5.18
2023-11-04T21:03:34.883Z,5.63
2023-11-04T21:06:07.105Z,6.85
2023-11-04T21:08:39.417Z,6.07
2023-11-04T21:11:11.661Z,6.45
2023-11-04T21:13:42.123Z,6.65
2023-11-04T21:16:16.027Z,6.90
2023-11-04T21:18:49.761Z,7.00
2023-11-04T21:21:22.792Z,7.03
2023-11-04T21:23:59.195Z,9.63
2023-11-04T21:26:33.251Z,10.60
2023-11-04T21:29:04.341Z,11.02
2023-11-04T21:31:35.067Z,10.18
2023-11-04T21:34:10.953Z,10.65
2023-11-04T21:36:41.204Z,12.68
2023-11-04T21:44:21.575Z,9.95
2023-11-04T21:46:53.502Z,11.02
2023-11-04T21:49:26.779Z,13.32
2023-11-04T21:51:57.798Z,12.95
2023-11-04T21:54:33.760Z,16.77
2023-11-04T21:57:05.089Z,14.38
2023-11-04T21:59:36.275Z,15.13
2023-11-04T22:02:07.474Z,12.18
2023-11-04T22:04:41.334Z,11.50
2023-11-04T22:07:11.703Z,11.88
2023-11-04T22:09:42.860Z,11.85
2023-11-04T22:12:13.161Z,10.80
2023-11-04T22:14:46.539Z,11.88
2023-11-04T22:17:17.934Z,9.73
2023-11-04T22:19:51.481Z,9.05
2023-11-04T22:22:25.017Z,9.05
2023-11-04T22:24:57.826Z,7.47
2023-11-04T22:27:40.176Z,8.48
2023-11-04T22:30:12.073Z,8.55
2023-11-04T22:32:45.799Z,7.70
2023-11-04T22:35:28.103Z,6.75
2023-11-04T22:37:59.540Z,7.65
2023-11-04T22:40:36.768Z,7.43
2023-11-04T22:43:12.294Z,7.28
2023-11-04T22:46:11.392Z,7.22
2023-11-04T22:48:42.365Z,8.10
2023-11-04T22:51:22.227Z,8.48
2023-11-04T22:53:53.267Z,8.48
2023-11-04T22:56:24.204Z,8.15
2023-11-04T22:58:57.947Z,7.82
2023-11-04T23:01:30.076Z,9.43
2023-11-04T23:04:01.068Z,9.27
2023-11-04T23:06:36.738Z,7.80
2023-11-04T23:09:11.630Z,8.20
2023-11-04T23:11:42.548Z,9.07
2023-11-04T23:14:16.239Z,10.32
2023-11-04T23:16:47.697Z,9.60
2023-11-04T23:19:21.014Z,10.25
2023-11-04T23:21:56.213Z,9.63
2023-11-04T23:24:27.015Z,8.45
2023-11-04T23:26:57.876Z,9.10
2023-11-04T23:29:28.477Z,8.63
2023-11-04T23:32:07.146Z,8.85
2023-11-04T23:34:37.799Z,7.00
2023-11-04T23:37:12.429Z,6.43
2023-11-04T23:39:44.999Z,7.80
2023-11-04T23:42:16.138Z,6.32
2023-11-04T23:44:47.216Z,7.85
2023-11-04T23:47:20.649Z,5.53
2023-11-04T23:49:53.523Z,6.43
2023-11-04T23:52:27.587Z,6.00
2023-11-04T23:55:01.498Z,6.47
2023-11-04T23:57:33.541Z,5.38
